sensor_id;sensor_type;location;lat;lon;timestamp;pressure;altitude;pressure_sealevel;temperature;humidity
6224;BME280;3145;42.726;23.342;2022-08-01T00:01:50;95259.91;;;19.13;nan
6224;BME280;3145;42.726;23.342;2022-08-01T00:04:17;95266.19;;;19.07;nan
6224;BME280;3145;42.726;23.342;2022-08-01T00:06:45;95264.69;;;19.00;nan
6224;BME280;3145;42.726;23.342;2022-08-01T00:09:11;95272.97;;;18.98;nan
6224;BME280;3145;42.726;23.342;2022-08-01T00:11:38;95273.41;;;18.95;nan
6224;BME280;3145;42.726;23.342;2022-08-01T00:14:06;95272.25;;;18.91;nan
6224;BME280;3145;42.726;23.342;2022-08-01T00:16:34;95278.09;;;18.88;nan
6224;BME280;3145;42.726;23.342;2022-08-01T00:19:01;95271.06;;;18.87;nan
6224;BME280;3145;42.726;23.342;2022-08-01T00:21:28;95268.19;;;18.77;nan
6224;BME280;3145;42.726;23.342;2022-08-01T00:23:56;95279.44;;;18.79;nan
6224;BME280;3145;42.726;23.342;2022-08-01T00:26:22;95274.09;;;18.79;nan
6224;BME280;3145;42.726;23.342;2022-08-01T00:28:49;95262.94;;;18.82;nan
6224;BME280;3145;42.726;23.342;2022-08-01T00:31:16;95266.56;;;18.88;nan
6224;BME280;3145;42.726;23.342;2022-08-01T00:33:43;95262.03;;;18.88;nan
6224;BME280;3145;42.726;23.342;2022-08-01T00:36:09;95265.88;;;18.92;nan
6224;BME280;3145;42.726;23.342;2022-08-01T00:38:36;95264.34;;;18.96;nan
6224;BME280;3145;42.726;23.342;2022-08-01T00:41:04;95258.41;;;18.94;nan
6224;BME280;3145;42.726;23.342;2022-08-01T00:43:31;95260.16;;;19.00;nan
6224;BME280;3145;42.726;23.342;2022-08-01T00:45:57;95258.88;;;19.03;nan
6224;BME280;3145;42.726;23.342;2022-08-01T00:48:24;95262.13;;;18.93;nan
6224;BME280;3145;42.726;23.342;2022-08-01T00:50:51;95245.59;;;18.96;nan
6224;BME280;3145;42.726;23.342;2022-08-01T00:53:18;95253.16;;;18.99;nan
6224;BME280;3145;42.726;23.342;2022-08-01T00:55:44;95253.16;;;18.99;nan
6224;BME280;3145;42.726;23.342;2022-08-01T00:58:13;95246.78;;;19.00;nan
6224;BME280;3145;42.726;23.342;2022-08-01T01:00:39;95247.34;;;19.02;nan
6224;BME280;3145;42.726;23.342;2022-08-01T01:03:06;95232.09;;;19.03;nan
6224;BME280;3145;42.726;23.342;2022-08-01T01:05:41;95244.09;;;19.00;nan
6224;BME280;3145;42.726;23.342;2022-08-01T01:08:16;95229.66;;;19.01;nan
6224;BME280;3145;42.726;23.342;2022-08-01T01:10:47;95232.22;;;18.96;nan
6224;BME280;3145;42.726;23.342;2022-08-01T01:13:23;95229.88;;;18.88;nan
6224;BME280;3145;42.726;23.342;2022-08-01T01:15:57;95223.38;;;18.84;nan
6224;BME280;3145;42.726;23.342;2022-08-01T01:18:30;95224.16;;;18.85;nan
6224;BME280;3145;42.726;23.342;2022-08-01T01:21:04;95223.81;;;18.81;nan
6224;BME280;3145;42.726;23.342;2022-08-01T01:23:54;95222.06;;;18.75;nan
6224;BME280;3145;42.726;23.342;2022-08-01T01:26:31;95210.78;;;18.73;nan
6224;BME280;3145;42.726;23.342;2022-08-01T01:29:12;95208.31;;;18.72;nan
6224;BME280;3145;42.726;23.342;2022-08-01T01:31:44;95212.06;;;18.71;nan
6224;BME280;3145;42.726;23.342;2022-08-01T01:34:13;95214.75;;;18.71;nan
6224;BME280;3145;42.726;23.342;2022-08-01T01:36:44;95212.19;;;18.64;nan
6224;BME280;3145;42.726;23.342;2022-08-01T01:39:13;95212.53;;;18.56;nan
6224;BME280;3145;42.726;23.342;2022-08-01T01:41:41;95217.72;;;18.51;nan
6224;BME280;3145;42.726;23.342;2022-08-01T01:44:11;95206.91;;;18.46;nan
6224;BME280;3145;42.726;23.342;2022-08-01T01:46:38;95204.81;;;18.48;nan
6224;BME280;3145;42.726;23.342;2022-08-01T01:49:08;95202.94;;;18.49;nan
6224;BME280;3145;42.726;23.342;2022-08-01T01:51:37;95196.44;;;18.45;nan
6224;BME280;3145;42.726;23.342;2022-08-01T01:54:05;95195.03;;;18.42;nan
6224;BME280;3145;42.726;23.342;2022-08-01T01:56:34;95196.09;;;18.41;nan
6224;BME280;3145;42.726;23.342;2022-08-01T01:59:16;95204.78;;;18.37;nan
6224;BME280;3145;42.726;23.342;2022-08-01T02:01:46;95199.88;;;18.34;nan
6224;BME280;3145;42.726;23.342;2022-08-01T02:04:15;95187.06;;;18.24;nan
6224;BME280;3145;42.726;23.342;2022-08-01T02:06:43;95202.78;;;18.32;nan
6224;BME280;3145;42.726;23.342;2022-08-01T02:09:14;95195.22;;;18.29;nan
6224;BME280;3145;42.726;23.342;2022-08-01T02:11:44;95202.19;;;18.30;nan
6224;BME280;3145;42.726;23.342;2022-08-01T02:14:12;95203.69;;;18.26;nan
6224;BME280;3145;42.726;23.342;2022-08-01T02:16:43;95199.28;;;18.20;nan
6224;BME280;3145;42.726;23.342;2022-08-01T02:19:10;95201.97;;;18.20;nan
6224;BME280;3145;42.726;23.342;2022-08-01T02:21:40;95200.31;;;18.19;nan
6224;BME280;3145;42.726;23.342;2022-08-01T02:24:12;95192.03;;;18.09;nan
6224;BME280;3145;42.726;23.342;2022-08-01T02:26:44;95195.75;;;18.08;nan
6224;BME280;3145;42.726;23.342;2022-08-01T02:29:16;95191.66;;;18.05;nan
6224;BME280;3145;42.726;23.342;2022-08-01T02:31:48;95194.59;;;18.04;nan
6224;BME280;3145;42.726;23.342;2022-08-01T02:34:17;95199.94;;;18.04;nan
6224;BME280;3145;42.726;23.342;2022-08-01T02:36:46;95198.28;;;18.03;nan
6224;BME280;3145;42.726;23.342;2022-08-01T02:39:16;95201.56;;;18.05;nan
6224;BME280;3145;42.726;23.342;2022-08-01T02:41:47;95197.59;;;17.96;nan
6224;BME280;3145;42.726;23.342;2022-08-01T02:44:21;95164.94;;;17.76;nan
6224;BME280;3145;42.726;23.342;2022-08-01T02:46:52;95198.03;;;17.93;nan
6224;BME280;3145;42.726;23.342;2022-08-01T02:49:21;95191.97;;;17.86;nan
6224;BME280;3145;42.726;23.342;2022-08-01T02:51:52;95185.53;;;17.75;nan
6224;BME280;3145;42.726;23.342;2022-08-01T02:54:21;95193.56;;;17.75;nan
6224;BME280;3145;42.726;23.342;2022-08-01T02:56:50;95186.81;;;17.73;nan
6224;BME280;3145;42.726;23.342;2022-08-01T02:59:18;95187.81;;;17.72;nan
6224;BME280;3145;42.726;23.342;2022-08-01T03:01:51;95182.94;;;17.69;nan
6224;BME280;3145;42.726;23.342;2022-08-01T03:04:21;95194.59;;;17.74;nan
6224;BME280;3145;42.726;23.342;2022-08-01T03:06:48;95196.22;;;17.75;nan
6224;BME280;3145;42.726;23.342;2022-08-01T03:09:18;95199.13;;;17.74;nan
6224;BME280;3145;42.726;23.342;2022-08-01T03:11:46;95205.03;;;17.76;nan
6224;BME280;3145;42.726;23.342;2022-08-01T03:14:16;95194.59;;;17.74;nan
6224;BME280;3145;42.726;23.342;2022-08-01T03:16:46;95195.38;;;17.75;nan
6224;BME280;3145;42.726;23.342;2022-08-01T03:19:18;95184.88;;;17.62;nan
6224;BME280;3145;42.726;23.342;2022-08-01T03:21:48;95193.03;;;17.67;nan
6224;BME280;3145;42.726;23.342;2022-08-01T03:24:18;95193.03;;;17.67;nan
6224;BME280;3145;42.726;23.342;2022-08-01T03:26:47;95188.75;;;17.66;nan
6224;BME280;3145;42.726;23.342;2022-08-01T03:29:18;95194.41;;;17.58;nan
6224;BME280;3145;42.726;23.342;2022-08-01T03:31:49;95193.22;;;17.54;nan
6224;BME280;3145;42.726;23.342;2022-08-01T03:34:18;95199.75;;;17.58;nan
6224;BME280;3145;42.726;23.342;2022-08-01T03:36:48;95196.03;;;17.59;nan
6224;BME280;3145;42.726;23.342;2022-08-01T03:39:17;95193.47;;;17.64;nan
6224;BME280;3145;42.726;23.342;2022-08-01T03:41:50;95205.88;;;17.76;nan
6224;BME280;3145;42.726;23.342;2022-08-01T03:44:24;95210.00;;;17.90;nan
6224;BME280;3145;42.726;23.342;2022-08-01T03:46:56;95205.34;;;17.97;nan
6224;BME280;3145;42.726;23.342;2022-08-01T03:49:29;95207.63;;;18.12;nan
6224;BME280;3145;42.726;23.342;2022-08-01T03:51:58;95208.88;;;18.39;nan
6224;BME280;3145;42.726;23.342;2022-08-01T03:54:31;95210.91;;;18.67;nan
6224;BME280;3145;42.726;23.342;2022-08-01T03:56:59;95215.31;;;18.96;nan
6224;BME280;3145;42.726;23.342;2022-08-01T03:59:27;95210.06;;;19.12;nan
6224;BME280;3145;42.726;23.342;2022-08-01T04:01:55;95208.44;;;19.34;nan
6224;BME280;3145;42.726;23.342;2022-08-01T04:04:22;95196.72;;;19.52;nan
6224;BME280;3145;42.726;23.342;2022-08-01T04:06:50;95201.66;;;19.83;nan
6224;BME280;3145;42.726;23.342;2022-08-01T04:09:19;95204.47;;;20.04;nan
6224;BME280;3145;42.726;23.342;2022-08-01T04:11:46;95204.41;;;20.27;nan
6224;BME280;3145;42.726;23.342;2022-08-01T04:14:13;95219.97;;;20.58;nan
6224;BME280;3145;42.726;23.342;2022-08-01T04:16:40;95211.91;;;20.75;nan
6224;BME280;3145;42.726;23.342;2022-08-01T04:19:07;95212.56;;;20.82;nan
6224;BME280;3145;42.726;23.342;2022-08-01T04:21:35;95218.91;;;21.09;nan
6224;BME280;3145;42.726;23.342;2022-08-01T04:24:10;95221.66;;;21.30;nan
6224;BME280;3145;42.726;23.342;2022-08-01T04:26:39;95208.06;;;21.42;nan
6224;BME280;3145;42.726;23.342;2022-08-01T04:29:08;95203.59;;;21.69;nan
6224;BME280;3145;42.726;23.342;2022-08-01T04:31:36;95203.97;;;21.77;nan
6224;BME280;3145;42.726;23.342;2022-08-01T04:34:06;95218.34;;;22.10;nan
6224;BME280;3145;42.726;23.342;2022-08-01T04:36:35;95214.84;;;22.36;nan
6224;BME280;3145;42.726;23.342;2022-08-01T04:39:05;95219.44;;;22.62;nan
6224;BME280;3145;42.726;23.342;2022-08-01T04:41:33;95228.84;;;22.91;nan
6224;BME280;3145;42.726;23.342;2022-08-01T04:44:01;95219.81;;;23.12;nan
6224;BME280;3145;42.726;23.342;2022-08-01T04:46:29;95213.25;;;23.34;nan
6224;BME280;3145;42.726;23.342;2022-08-01T04:48:56;95211.69;;;23.43;nan
6224;BME280;3145;42.726;23.342;2022-08-01T04:51:23;95218.00;;;23.64;nan
6224;BME280;3145;42.726;23.342;2022-08-01T04:53:50;95217.34;;;23.93;nan
6224;BME280;3145;42.726;23.342;2022-08-01T04:56:19;95218.22;;;24.09;nan
6224;BME280;3145;42.726;23.342;2022-08-01T04:58:46;95221.50;;;24.26;nan
6224;BME280;3145;42.726;23.342;2022-08-01T05:01:13;95218.56;;;24.42;nan
6224;BME280;3145;42.726;23.342;2022-08-01T05:03:40;95217.25;;;24.60;nan
6224;BME280;3145;42.726;23.342;2022-08-01T05:06:07;95207.00;;;24.77;nan
6224;BME280;3145;42.726;23.342;2022-08-01T05:08:34;95211.06;;;25.04;nan
6224;BME280;3145;42.726;23.342;2022-08-01T05:11:02;95202.66;;;25.31;nan
6224;BME280;3145;42.726;23.342;2022-08-01T05:13:30;95210.22;;;25.49;nan
6224;BME280;3145;42.726;23.342;2022-08-01T05:15:57;95192.31;;;25.63;nan
6224;BME280;3145;42.726;23.342;2022-08-01T05:18:24;95203.59;;;25.85;nan
6224;BME280;3145;42.726;23.342;2022-08-01T05:20:52;95200.03;;;26.00;nan
6224;BME280;3145;42.726;23.342;2022-08-01T05:23:18;95211.03;;;26.23;nan
6224;BME280;3145;42.726;23.342;2022-08-01T05:25:45;95206.59;;;26.37;nan
6224;BME280;3145;42.726;23.342;2022-08-01T05:28:13;95202.31;;;26.31;nan
6224;BME280;3145;42.726;23.342;2022-08-01T05:30:41;95193.22;;;26.51;nan
6224;BME280;3145;42.726;23.342;2022-08-01T05:33:08;95213.47;;;26.68;nan
6224;BME280;3145;42.726;23.342;2022-08-01T05:35:35;95209.28;;;26.86;nan
6224;BME280;3145;42.726;23.342;2022-08-01T05:38:02;95203.97;;;27.04;nan
6224;BME280;3145;42.726;23.342;2022-08-01T05:40:29;95200.66;;;27.12;nan
6224;BME280;3145;42.726;23.342;2022-08-01T05:42:58;95214.59;;;27.34;nan
6224;BME280;3145;42.726;23.342;2022-08-01T05:45:25;95212.00;;;27.48;nan
6224;BME280;3145;42.726;23.342;2022-08-01T05:47:53;95203.69;;;27.39;nan
6224;BME280;3145;42.726;23.342;2022-08-01T05:50:19;95201.59;;;27.55;nan
6224;BME280;3145;42.726;23.342;2022-08-01T05:52:46;95210.75;;;27.64;nan
6224;BME280;3145;42.726;23.342;2022-08-01T05:55:13;95206.13;;;27.64;nan
6224;BME280;3145;42.726;23.342;2022-08-01T05:57:40;95212.34;;;27.41;nan
6224;BME280;3145;42.726;23.342;2022-08-01T06:00:08;95219.06;;;27.49;nan
6224;BME280;3145;42.726;23.342;2022-08-01T06:02:40;95224.00;;;27.42;nan
6224;BME280;3145;42.726;23.342;2022-08-01T06:05:08;95217.91;;;27.55;nan
6224;BME280;3145;42.726;23.342;2022-08-01T06:07:35;95214.34;;;27.59;nan
6224;BME280;3145;42.726;23.342;2022-08-01T06:10:04;95220.03;;;27.81;nan
6224;BME280;3145;42.726;23.342;2022-08-01T06:12:32;95208.56;;;27.89;nan
6224;BME280;3145;42.726;23.342;2022-08-01T06:14:59;95207.78;;;27.89;nan
6224;BME280;3145;42.726;23.342;2022-08-01T06:17:26;95206.63;;;28.13;nan
6224;BME280;3145;42.726;23.342;2022-08-01T06:19:52;95198.47;;;28.13;nan
6224;BME280;3145;42.726;23.342;2022-08-01T06:22:21;95206.31;;;27.96;nan
6224;BME280;3145;42.726;23.342;2022-08-01T06:24:47;95209.25;;;28.23;nan
6224;BME280;3145;42.726;23.342;2022-08-01T06:27:14;95187.78;;;28.40;nan
6224;BME280;3145;42.726;23.342;2022-08-01T06:29:41;95206.06;;;28.58;nan
6224;BME280;3145;42.726;23.342;2022-08-01T06:32:08;95212.97;;;28.69;nan
6224;BME280;3145;42.726;23.342;2022-08-01T06:34:35;95205.41;;;28.48;nan
6224;BME280;3145;42.726;23.342;2022-08-01T06:37:02;95200.09;;;28.56;nan
6224;BME280;3145;42.726;23.342;2022-08-01T06:39:30;95201.94;;;28.42;nan
6224;BME280;3145;42.726;23.342;2022-08-01T06:41:57;95188.56;;;28.46;nan
6224;BME280;3145;42.726;23.342;2022-08-01T06:44:23;95189.16;;;28.61;nan
6224;BME280;3145;42.726;23.342;2022-08-01T06:46:50;95190.59;;;28.72;nan
6224;BME280;3145;42.726;23.342;2022-08-01T06:49:16;95184.56;;;28.75;nan
6224;BME280;3145;42.726;23.342;2022-08-01T06:51:43;95184.75;;;28.23;nan
6224;BME280;3145;42.726;23.342;2022-08-01T06:54:10;95185.84;;;28.46;nan
6224;BME280;3145;42.726;23.342;2022-08-01T06:56:38;95185.16;;;28.72;nan
6224;BME280;3145;42.726;23.342;2022-08-01T06:59:05;95185.22;;;28.86;nan
6224;BME280;3145;42.726;23.342;2022-08-01T07:01:31;95178.25;;;28.80;nan
6224;BME280;3145;42.726;23.342;2022-08-01T07:03:58;95168.44;;;28.79;nan
6224;BME280;3145;42.726;23.342;2022-08-01T07:06:25;95165.47;;;28.43;nan
6224;BME280;3145;42.726;23.342;2022-08-01T07:08:52;95170.66;;;28.77;nan
6224;BME280;3145;42.726;23.342;2022-08-01T07:11:20;95166.03;;;28.77;nan
6224;BME280;3145;42.726;23.342;2022-08-01T07:13:48;95165.22;;;28.77;nan
6224;BME280;3145;42.726;23.342;2022-08-01T07:16:15;95177.44;;;28.61;nan
6224;BME280;3145;42.726;23.342;2022-08-01T07:18:42;95181.00;;;28.61;nan
6224;BME280;3145;42.726;23.342;2022-08-01T07:21:09;95186.03;;;28.86;nan
6224;BME280;3145;42.726;23.342;2022-08-01T07:23:36;95175.53;;;28.80;nan
6224;BME280;3145;42.726;23.342;2022-08-01T07:26:03;95174.44;;;28.62;nan
6224;BME280;3145;42.726;23.342;2022-08-01T07:28:31;95178.00;;;28.21;nan
6224;BME280;3145;42.726;23.342;2022-08-01T07:30:59;95181.78;;;28.43;nan
6224;BME280;3145;42.726;23.342;2022-08-01T07:33:26;95182.25;;;28.08;nan
6224;BME280;3145;42.726;23.342;2022-08-01T07:35:53;95181.00;;;28.19;nan
6224;BME280;3145;42.726;23.342;2022-08-01T07:38:20;95176.09;;;28.21;nan
6224;BME280;3145;42.726;23.342;2022-08-01T07:40:47;95178.66;;;28.31;nan
6224;BME280;3145;42.726;23.342;2022-08-01T07:43:14;95182.25;;;28.27;nan
6224;BME280;3145;42.726;23.342;2022-08-01T07:45:41;95183.00;;;28.32;nan
6224;BME280;3145;42.726;23.342;2022-08-01T07:48:09;95178.81;;;28.21;nan
6224;BME280;3145;42.726;23.342;2022-08-01T07:50:36;95174.16;;;28.45;nan
6224;BME280;3145;42.726;23.342;2022-08-01T07:53:02;95175.59;;;28.38;nan
6224;BME280;3145;42.726;23.342;2022-08-01T07:55:29;95173.38;;;28.21;nan
6224;BME280;3145;42.726;23.342;2022-08-01T07:57:56;95179.34;;;28.60;nan
6224;BME280;3145;42.726;23.342;2022-08-01T08:00:23;95164.59;;;28.48;nan
6224;BME280;3145;42.726;23.342;2022-08-01T08:02:50;95170.25;;;28.51;nan
6224;BME280;3145;42.726;23.342;2022-08-01T08:05:18;95182.53;;;28.67;nan
6224;BME280;3145;42.726;23.342;2022-08-01T08:07:45;95188.16;;;28.71;nan
6224;BME280;3145;42.726;23.342;2022-08-01T08:10:12;95178.09;;;28.71;nan
6224;BME280;3145;42.726;23.342;2022-08-01T08:12:38;95182.06;;;28.60;nan
6224;BME280;3145;42.726;23.342;2022-08-01T08:15:06;95188.53;;;28.64;nan
6224;BME280;3145;42.726;23.342;2022-08-01T08:17:33;95176.78;;;28.69;nan
6224;BME280;3145;42.726;23.342;2022-08-01T08:20:00;95175.91;;;28.73;nan
6224;BME280;3145;42.726;23.342;2022-08-01T08:22:29;95178.84;;;28.58;nan
6224;BME280;3145;42.726;23.342;2022-08-01T08:24:55;95178.78;;;28.45;nan
6224;BME280;3145;42.726;23.342;2022-08-01T08:27:22;95193.22;;;28.40;nan
6224;BME280;3145;42.726;23.342;2022-08-01T08:29:49;95174.16;;;28.45;nan
6224;BME280;3145;42.726;23.342;2022-08-01T08:32:16;95169.84;;;28.39;nan
6224;BME280;3145;42.726;23.342;2022-08-01T08:34:43;95164.31;;;28.49;nan
6224;BME280;3145;42.726;23.342;2022-08-01T08:37:10;95168.19;;;28.62;nan
6224;BME280;3145;42.726;23.342;2022-08-01T08:39:38;95182.56;;;28.81;nan
6224;BME280;3145;42.726;23.342;2022-08-01T08:42:06;95165.59;;;28.33;nan
6224;BME280;3145;42.726;23.342;2022-08-01T08:44:33;95166.41;;;28.52;nan
6224;BME280;3145;42.726;23.342;2022-08-01T08:47:01;95171.75;;;28.20;nan
6224;BME280;3145;42.726;23.342;2022-08-01T08:49:31;95163.09;;;28.18;nan
6224;BME280;3145;42.726;23.342;2022-08-01T08:51:59;95157.31;;;28.43;nan
6224;BME280;3145;42.726;23.342;2022-08-01T08:54:28;95157.94;;;28.72;nan
6224;BME280;3145;42.726;23.342;2022-08-01T08:56:58;95141.13;;;28.70;nan
6224;BME280;3145;42.726;23.342;2022-08-01T08:59:26;95156.19;;;28.81;nan
6224;BME280;3145;42.726;23.342;2022-08-01T09:01:53;95162.53;;;28.58;nan
6224;BME280;3145;42.726;23.342;2022-08-01T09:04:21;95160.59;;;28.40;nan
6224;BME280;3145;42.726;23.342;2022-08-01T09:06:48;95151.28;;;28.65;nan
6224;BME280;3145;42.726;23.342;2022-08-01T09:09:15;95155.06;;;28.82;nan
6224;BME280;3145;42.726;23.342;2022-08-01T09:11:42;95155.16;;;28.77;nan
6224;BME280;3145;42.726;23.342;2022-08-01T09:14:13;95140.59;;;28.87;nan
6224;BME280;3145;42.726;23.342;2022-08-01T09:16:42;95151.22;;;29.02;nan
6224;BME280;3145;42.726;23.342;2022-08-01T09:19:12;95156.28;;;29.08;nan
6224;BME280;3145;42.726;23.342;2022-08-01T09:21:40;95147.34;;;28.71;nan
6224;BME280;3145;42.726;23.342;2022-08-01T09:24:21;95141.06;;;28.89;nan
6224;BME280;3145;42.726;23.342;2022-08-01T09:26:47;95142.53;;;28.68;nan
6224;BME280;3145;42.726;23.342;2022-08-01T09:29:21;95138.94;;;28.54;nan
6224;BME280;3145;42.726;23.342;2022-08-01T09:31:48;95158.22;;;28.89;nan
6224;BME280;3145;42.726;23.342;2022-08-01T09:34:16;95149.00;;;28.53;nan
6224;BME280;3145;42.726;23.342;2022-08-01T09:36:46;95137.25;;;28.90;nan
6224;BME280;3145;42.726;23.342;2022-08-01T09:39:16;95135.50;;;28.80;nan
6224;BME280;3145;42.726;23.342;2022-08-01T09:41:43;95150.63;;;29.05;nan
6224;BME280;3145;42.726;23.342;2022-08-01T09:44:10;95149.34;;;29.16;nan
6224;BME280;3145;42.726;23.342;2022-08-01T09:46:48;95154.28;;;28.95;nan
6224;BME280;3145;42.726;23.342;2022-08-01T09:49:27;95146.91;;;28.82;nan
6224;BME280;3145;42.726;23.342;2022-08-01T09:51:54;95151.44;;;29.05;nan
6224;BME280;3145;42.726;23.342;2022-08-01T09:54:29;95167.13;;;29.40;nan
6224;BME280;3145;42.726;23.342;2022-08-01T09:57:10;95147.66;;;29.33;nan
6224;BME280;3145;42.726;23.342;2022-08-01T09:59:39;95146.03;;;29.32;nan
6224;BME280;3145;42.726;23.342;2022-08-01T10:02:09;95152.13;;;29.56;nan
6224;BME280;3145;42.726;23.342;2022-08-01T10:04:46;95150.34;;;29.66;nan
6224;BME280;3145;42.726;23.342;2022-08-01T10:07:13;95146.34;;;29.44;nan
6224;BME280;3145;42.726;23.342;2022-08-01T10:09:41;95151.09;;;28.93;nan
6224;BME280;3145;42.726;23.342;2022-08-01T10:12:09;95151.31;;;28.78;nan
6224;BME280;3145;42.726;23.342;2022-08-01T10:14:37;95138.09;;;28.72;nan
6224;BME280;3145;42.726;23.342;2022-08-01T10:17:07;95145.75;;;28.14;nan
6224;BME280;3145;42.726;23.342;2022-08-01T10:19:36;95130.22;;;27.96;nan
6224;BME280;3145;42.726;23.342;2022-08-01T10:22:04;95135.81;;;27.81;nan
6224;BME280;3145;42.726;23.342;2022-08-01T10:24:31;95143.59;;;27.93;nan
6224;BME280;3145;42.726;23.342;2022-08-01T10:27:04;95127.97;;;28.03;nan
6224;BME280;3145;42.726;23.342;2022-08-01T10:29:35;95130.91;;;28.25;nan
6224;BME280;3145;42.726;23.342;2022-08-01T10:32:04;95125.38;;;28.67;nan
6224;BME280;3145;42.726;23.342;2022-08-01T10:34:31;95121.47;;;28.73;nan
6224;BME280;3145;42.726;23.342;2022-08-01T10:37:01;95119.78;;;29.09;nan
6224;BME280;3145;42.726;23.342;2022-08-01T10:39:28;95120.97;;;29.03;nan
6224;BME280;3145;42.726;23.342;2022-08-01T10:41:56;95120.81;;;29.13;nan
6224;BME280;3145;42.726;23.342;2022-08-01T10:44:23;95110.09;;;29.03;nan
6224;BME280;3145;42.726;23.342;2022-08-01T10:46:54;95106.91;;;29.15;nan
6224;BME280;3145;42.726;23.342;2022-08-01T10:49:24;95103.66;;;29.26;nan
6224;BME280;3145;42.726;23.342;2022-08-01T10:51:53;95108.91;;;29.50;nan
6224;BME280;3145;42.726;23.342;2022-08-01T10:54:24;95103.31;;;29.74;nan
6224;BME280;3145;42.726;23.342;2022-08-01T10:56:51;95100.06;;;29.72;nan
6224;BME280;3145;42.726;23.342;2022-08-01T10:59:21;95093.91;;;29.80;nan
6224;BME280;3145;42.726;23.342;2022-08-01T11:01:56;95105.09;;;29.92;nan
6224;BME280;3145;42.726;23.342;2022-08-01T11:04:33;95114.63;;;29.81;nan
6224;BME280;3145;42.726;23.342;2022-08-01T11:07:04;95107.94;;;29.87;nan
6224;BME280;3145;42.726;23.342;2022-08-01T11:09:39;95104.59;;;29.90;nan
6224;BME280;3145;42.726;23.342;2022-08-01T11:12:08;95083.72;;;29.72;nan
6224;BME280;3145;42.726;23.342;2022-08-01T11:17:36;95103.88;;;29.57;nan
6224;BME280;3145;42.726;23.342;2022-08-01T11:20:05;95100.75;;;29.09;nan
6224;BME280;3145;42.726;23.342;2022-08-01T11:26:21;95097.19;;;29.09;nan
6224;BME280;3145;42.726;23.342;2022-08-01T11:29:13;95095.50;;;29.53;nan
6224;BME280;3145;42.726;23.342;2022-08-01T11:31:40;95091.50;;;29.65;nan
6224;BME280;3145;42.726;23.342;2022-08-01T11:34:07;95090.09;;;29.81;nan
6224;BME280;3145;42.726;23.342;2022-08-01T11:36:35;95099.66;;;29.78;nan
6224;BME280;3145;42.726;23.342;2022-08-01T11:39:18;95092.59;;;29.77;nan
6224;BME280;3145;42.726;23.342;2022-08-01T11:41:47;95095.31;;;29.91;nan
6224;BME280;3145;42.726;23.342;2022-08-01T11:44:19;95084.22;;;29.74;nan
6224;BME280;3145;42.726;23.342;2022-08-01T11:46:52;95092.56;;;29.91;nan
6224;BME280;3145;42.726;23.342;2022-08-01T11:49:44;95087.13;;;29.77;nan
6224;BME280;3145;42.726;23.342;2022-08-01T11:52:13;95092.00;;;29.80;nan
6224;BME280;3145;42.726;23.342;2022-08-01T11:54:43;95085.09;;;29.96;nan
6224;BME280;3145;42.726;23.342;2022-08-01T11:57:13;95079.78;;;30.13;nan
6224;BME280;3145;42.726;23.342;2022-08-01T11:59:42;95026.97;;;29.87;nan
6224;BME280;3145;42.726;23.342;2022-08-01T12:02:19;95077.16;;;29.73;nan
6224;BME280;3145;42.726;23.342;2022-08-01T12:04:48;95077.63;;;30.02;nan
6224;BME280;3145;42.726;23.342;2022-08-01T12:07:16;95079.59;;;30.23;nan
6224;BME280;3145;42.726;23.342;2022-08-01T12:09:44;95080.09;;;30.25;nan
6224;BME280;3145;42.726;23.342;2022-08-01T12:12:15;95084.44;;;30.26;nan
6224;BME280;3145;42.726;23.342;2022-08-01T12:14:43;95084.50;;;30.35;nan
6224;BME280;3145;42.726;23.342;2022-08-01T12:17:11;95087.06;;;30.31;nan
6224;BME280;3145;42.726;23.342;2022-08-01T12:19:37;95087.47;;;30.25;nan
6224;BME280;3145;42.726;23.342;2022-08-01T12:22:11;95087.47;;;30.25;nan
6224;BME280;3145;42.726;23.342;2022-08-01T12:24:40;95076.31;;;30.35;nan
6224;BME280;3145;42.726;23.342;2022-08-01T12:27:08;95078.03;;;29.95;nan
6224;BME280;3145;42.726;23.342;2022-08-01T12:29:38;95083.84;;;30.16;nan
6224;BME280;3145;42.726;23.342;2022-08-01T12:32:21;95083.75;;;30.21;nan
6224;BME280;3145;42.726;23.342;2022-08-01T12:34:49;95077.38;;;30.12;nan
6224;BME280;3145;42.726;23.342;2022-08-01T12:37:16;95079.63;;;30.10;nan
6224;BME280;3145;42.726;23.342;2022-08-01T12:39:44;95086.59;;;30.16;nan
6224;BME280;3145;42.726;23.342;2022-08-01T12:42:12;95080.38;;;29.88;nan
6224;BME280;3145;42.726;23.342;2022-08-01T12:44:42;95076.81;;;29.88;nan
6224;BME280;3145;42.726;23.342;2022-08-01T12:47:10;95077.25;;;29.81;nan
6224;BME280;3145;42.726;23.342;2022-08-01T12:49:37;95063.56;;;29.59;nan
6224;BME280;3145;42.726;23.342;2022-08-01T12:52:05;95069.28;;;29.85;nan
6224;BME280;3145;42.726;23.342;2022-08-01T12:55:06;95062.94;;;29.35;nan
6224;BME280;3145;42.726;23.342;2022-08-01T12:57:35;95055.66;;;29.30;nan
6224;BME280;3145;42.726;23.342;2022-08-01T13:00:13;95053.22;;;29.15;nan
6224;BME280;3145;42.726;23.342;2022-08-01T13:02:41;95056.47;;;29.17;nan
6224;BME280;3145;42.726;23.342;2022-08-01T13:05:09;95054.25;;;29.19;nan
6224;BME280;3145;42.726;23.342;2022-08-01T13:07:42;95061.09;;;29.30;nan
6224;BME280;3145;42.726;23.342;2022-08-01T13:10:09;95061.91;;;29.58;nan
6224;BME280;3145;42.726;23.342;2022-08-01T13:12:37;95053.53;;;29.82;nan
6224;BME280;3145;42.726;23.342;2022-08-01T13:15:23;95062.38;;;30.01;nan
6224;BME280;3145;42.726;23.342;2022-08-01T13:17:51;95056.97;;;30.23;nan
6224;BME280;3145;42.726;23.342;2022-08-01T13:20:25;95058.09;;;30.44;nan
6224;BME280;3145;42.726;23.342;2022-08-01T13:22:52;95061.81;;;30.26;nan
6224;BME280;3145;42.726;23.342;2022-08-01T13:25:19;95061.94;;;30.21;nan
6224;BME280;3145;42.726;23.342;2022-08-01T13:27:46;95055.84;;;30.10;nan
6224;BME280;3145;42.726;23.342;2022-08-01T13:30:15;95053.84;;;30.02;nan
6224;BME280;3145;42.726;23.342;2022-08-01T13:32:44;95053.38;;;30.00;nan
6224;BME280;3145;42.726;23.342;2022-08-01T13:35:12;95051.13;;;30.02;nan
6224;BME280;3145;42.726;23.342;2022-08-01T13:37:40;95045.34;;;29.82;nan
6224;BME280;3145;42.726;23.342;2022-08-01T13:40:08;95051.63;;;29.69;nan
6224;BME280;3145;42.726;23.342;2022-08-01T13:42:36;95045.78;;;29.62;nan
6224;BME280;3145;42.726;23.342;2022-08-01T13:45:04;95047.50;;;29.30;nan
6224;BME280;3145;42.726;23.342;2022-08-01T13:47:32;95036.72;;;29.25;nan
6224;BME280;3145;42.726;23.342;2022-08-01T13:50:00;95040.50;;;29.24;nan